sensor_id;sensor_type;location;lat;lon;timestamp;P1;durP1;ratioP1;P2;durP2;ratioP2
69319;SDS011;56467;53.502;49.248;2022-10-17T00:00:50;4.15;;;2.80;;
69319;SDS011;56467;53.502;49.248;2022-10-17T00:03:16;3.45;;;2.60;;
69319;SDS011;56467;53.502;49.248;2022-10-17T00:05:43;3.30;;;2.47;;
69319;SDS011;56467;53.502;49.248;2022-10-17T00:08:11;3.33;;;2.53;;
69319;SDS011;56467;53.502;49.248;2022-10-17T00:10:38;3.97;;;2.60;;
69319;SDS011;56467;53.502;49.248;2022-10-17T00:13:04;4.43;;;2.20;;
69319;SDS011;56467;53.502;49.248;2022-10-17T00:15:30;3.67;;;2.25;;
69319;SDS011;56467;53.502;49.248;2022-10-17T00:17:57;3.13;;;2.33;;
69319;SDS011;56467;53.502;49.248;2022-10-17T00:20:23;3.22;;;2.50;;
69319;SDS011;56467;53.502;49.248;2022-10-17T00:22:50;4.00;;;2.75;;
69319;SDS011;56467;53.502;49.248;2022-10-17T00:25:16;2.90;;;2.20;;
69319;SDS011;56467;53.502;49.248;2022-10-17T00:27:42;3.38;;;2.33;;
69319;SDS011;56467;53.502;49.248;2022-10-17T00:30:10;3.03;;;2.30;;
69319;SDS011;56467;53.502;49.248;2022-10-17T00:32:38;3.00;;;2.38;;
69319;SDS011;56467;53.502;49.248;2022-10-17T00:35:04;3.25;;;2.30;;
69319;SDS011;56467;53.502;49.248;2022-10-17T00:37:30;2.85;;;2.10;;
69319;SDS011;56467;53.502;49.248;2022-10-17T00:39:56;2.40;;;2.20;;
69319;SDS011;56467;53.502;49.248;2022-10-17T00:42:22;3.75;;;2.50;;
69319;SDS011;56467;53.502;49.248;2022-10-17T00:47:16;4.05;;;2.25;;
69319;SDS011;56467;53.502;49.248;2022-10-17T00:49:45;2.90;;;2.35;;
69319;SDS011;56467;53.502;49.248;2022-10-17T00:52:21;2.58;;;2.15;;
69319;SDS011;56467;53.502;49.248;2022-10-17T00:54:53;2.63;;;2.03;;
69319;SDS011;56467;53.502;49.248;2022-10-17T00:57:24;2.33;;;1.95;;
69319;SDS011;56467;53.502;49.248;2022-10-17T00:59:52;3.03;;;2.13;;
69319;SDS011;56467;53.502;49.248;2022-10-17T01:02:21;2.55;;;2.10;;
69319;SDS011;56467;53.502;49.248;2022-10-17T01:04:49;2.30;;;2.10;;
69319;SDS011;56467;53.502;49.248;2022-10-17T01:07:19;3.58;;;2.28;;
69319;SDS011;56467;53.502;49.248;2022-10-17T01:09:44;2.50;;;2.20;;
69319;SDS011;56467;53.502;49.248;2022-10-17T01:14:46;4.38;;;2.30;;
69319;SDS011;56467;53.502;49.248;2022-10-17T01:25:56;3.17;;;2.10;;
69319;SDS011;56467;53.502;49.248;2022-10-17T01:31:35;3.75;;;2.25;;
69319;SDS011;56467;53.502;49.248;2022-10-17T01:34:08;3.33;;;2.03;;
69319;SDS011;56467;53.502;49.248;2022-10-17T01:39:16;2.13;;;1.85;;
69319;SDS011;56467;53.502;49.248;2022-10-17T01:46:50;2.60;;;2.10;;
69319;SDS011;56467;53.502;49.248;2022-10-17T01:49:24;2.40;;;2.13;;
69319;SDS011;56467;53.502;49.248;2022-10-17T01:51:59;2.28;;;1.85;;
69319;SDS011;56467;53.502;49.248;2022-10-17T02:00:09;3.15;;;2.00;;
69319;SDS011;56467;53.502;49.248;2022-10-17T02:02:40;2.80;;;1.90;;
69319;SDS011;56467;53.502;49.248;2022-10-17T02:05:07;1.90;;;1.70;;
69319;SDS011;56467;53.502;49.248;2022-10-17T02:07:34;3.17;;;2.00;;
69319;SDS011;56467;53.502;49.248;2022-10-17T02:10:00;4.03;;;2.20;;
69319;SDS011;56467;53.502;49.248;2022-10-17T02:26:56;3.20;;;2.00;;
69319;SDS011;56467;53.502;49.248;2022-10-17T02:29:32;2.45;;;2.00;;
69319;SDS011;56467;53.502;49.248;2022-10-17T02:34:52;2.80;;;2.08;;
69319;SDS011;56467;53.502;49.248;2022-10-17T02:37:22;2.10;;;1.80;;
69319;SDS011;56467;53.502;49.248;2022-10-17T02:39:52;2.42;;;1.85;;
69319;SDS011;56467;53.502;49.248;2022-10-17T02:42:20;3.05;;;2.00;;
69319;SDS011;56467;53.502;49.248;2022-10-17T02:44:48;2.50;;;2.05;;
69319;SDS011;56467;53.502;49.248;2022-10-17T02:47:22;3.58;;;1.90;;
69319;SDS011;56467;53.502;49.248;2022-10-17T02:49:52;2.42;;;2.13;;
69319;SDS011;56467;53.502;49.248;2022-10-17T02:52:26;2.03;;;1.80;;
69319;SDS011;56467;53.502;49.248;2022-10-17T02:57:52;2.17;;;1.88;;
69319;SDS011;56467;53.502;49.248;2022-10-17T03:00:21;1.90;;;1.70;;
69319;SDS011;56467;53.502;49.248;2022-10-17T03:02:49;2.58;;;1.90;;
69319;SDS011;56467;53.502;49.248;2022-10-17T03:05:18;2.95;;;1.90;;
69319;SDS011;56467;53.502;49.248;2022-10-17T03:07:53;2.38;;;1.90;;
69319;SDS011;56467;53.502;49.248;2022-10-17T03:10:20;2.05;;;1.63;;
69319;SDS011;56467;53.502;49.248;2022-10-17T03:12:47;2.55;;;1.80;;
69319;SDS011;56467;53.502;49.248;2022-10-17T03:15:13;2.67;;;2.00;;
69319;SDS011;56467;53.502;49.248;2022-10-17T03:17:39;2.38;;;2.00;;
69319;SDS011;56467;53.502;49.248;2022-10-17T03:20:05;2.80;;;1.80;;
69319;SDS011;56467;53.502;49.248;2022-10-17T03:22:31;2.97;;;1.90;;
69319;SDS011;56467;53.502;49.248;2022-10-17T03:24:57;2.60;;;1.90;;
69319;SDS011;56467;53.502;49.248;2022-10-17T03:27:23;2.65;;;1.90;;
69319;SDS011;56467;53.502;49.248;2022-10-17T03:29:49;5.10;;;1.95;;
69319;SDS011;56467;53.502;49.248;2022-10-17T03:32:15;2.15;;;1.90;;
69319;SDS011;56467;53.502;49.248;2022-10-17T03:34:41;2.22;;;1.90;;
69319;SDS011;56467;53.502;49.248;2022-10-17T03:37:10;2.58;;;1.90;;
69319;SDS011;56467;53.502;49.248;2022-10-17T03:39:35;2.00;;;1.70;;
69319;SDS011;56467;53.502;49.248;2022-10-17T03:42:01;4.50;;;1.90;;
69319;SDS011;56467;53.502;49.248;2022-10-17T03:44:27;2.40;;;1.90;;
69319;SDS011;56467;53.502;49.248;2022-10-17T03:46:53;2.92;;;1.90;;
69319;SDS011;56467;53.502;49.248;2022-10-17T03:49:19;2.63;;;1.92;;
69319;SDS011;56467;53.502;49.248;2022-10-17T03:51:44;2.47;;;1.98;;
69319;SDS011;56467;53.502;49.248;2022-10-17T03:54:10;2.28;;;1.63;;
69319;SDS011;56467;53.502;49.248;2022-10-17T03:56:36;2.58;;;1.90;;
69319;SDS011;56467;53.502;49.248;2022-10-17T03:59:02;1.95;;;1.70;;
69319;SDS011;56467;53.502;49.248;2022-10-17T04:01:28;2.78;;;2.00;;
69319;SDS011;56467;53.502;49.248;2022-10-17T04:03:54;2.63;;;1.77;;
69319;SDS011;56467;53.502;49.248;2022-10-17T04:06:21;2.28;;;1.80;;
69319;SDS011;56467;53.502;49.248;2022-10-17T04:08:48;2.60;;;2.00;;
69319;SDS011;56467;53.502;49.248;2022-10-17T04:11:17;2.05;;;1.77;;
69319;SDS011;56467;53.502;49.248;2022-10-17T04:13:44;2.50;;;1.75;;
69319;SDS011;56467;53.502;49.248;2022-10-17T04:16:12;2.60;;;2.00;;
69319;SDS011;56467;53.502;49.248;2022-10-17T04:18:40;2.75;;;1.90;;
69319;SDS011;56467;53.502;49.248;2022-10-17T04:21:07;2.20;;;1.90;;
69319;SDS011;56467;53.502;49.248;2022-10-17T04:23:34;2.00;;;1.80;;
69319;SDS011;56467;53.502;49.248;2022-10-17T04:26:00;2.40;;;1.70;;
69319;SDS011;56467;53.502;49.248;2022-10-17T04:28:27;2.25;;;1.80;;
69319;SDS011;56467;53.502;49.248;2022-10-17T04:30:58;2.05;;;1.77;;
69319;SDS011;56467;53.502;49.248;2022-10-17T04:33:25;2.20;;;1.80;;
69319;SDS011;56467;53.502;49.248;2022-10-17T04:35:57;2.85;;;1.73;;
69319;SDS011;56467;53.502;49.248;2022-10-17T04:38:23;2.30;;;1.90;;
69319;SDS011;56467;53.502;49.248;2022-10-17T04:40:50;1.98;;;1.77;;
69319;SDS011;56467;53.502;49.248;2022-10-17T04:43:16;2.65;;;1.90;;
69319;SDS011;56467;53.502;49.248;2022-10-17T04:45:41;2.35;;;1.80;;
69319;SDS011;56467;53.502;49.248;2022-10-17T04:48:07;2.90;;;1.92;;
69319;SDS011;56467;53.502;49.248;2022-10-17T04:50:33;1.90;;;1.67;;
69319;SDS011;56467;53.502;49.248;2022-10-17T04:52:59;2.30;;;1.90;;
69319;SDS011;56467;53.502;49.248;2022-10-17T04:55:24;2.65;;;1.90;;
69319;SDS011;56467;53.502;49.248;2022-10-17T04:57:50;2.60;;;1.88;;
69319;SDS011;56467;53.502;49.248;2022-10-17T05:00:16;2.78;;;1.90;;
69319;SDS011;56467;53.502;49.248;2022-10-17T05:02:42;2.42;;;1.77;;
69319;SDS011;56467;53.502;49.248;2022-10-17T05:05:08;2.97;;;1.70;;
69319;SDS011;56467;53.502;49.248;2022-10-17T05:07:34;3.40;;;2.13;;
69319;SDS011;56467;53.502;49.248;2022-10-17T05:09:59;2.60;;;1.98;;
69319;SDS011;56467;53.502;49.248;2022-10-17T05:12:25;3.50;;;2.05;;
69319;SDS011;56467;53.502;49.248;2022-10-17T05:14:51;3.00;;;1.90;;
69319;SDS011;56467;53.502;49.248;2022-10-17T05:17:16;2.15;;;1.70;;
69319;SDS011;56467;53.502;49.248;2022-10-17T05:19:42;2.00;;;1.70;;
69319;SDS011;56467;53.502;49.248;2022-10-17T05:22:08;2.38;;;1.90;;
69319;SDS011;56467;53.502;49.248;2022-10-17T05:24:34;2.15;;;1.80;;
69319;SDS011;56467;53.502;49.248;2022-10-17T05:27:00;2.92;;;1.80;;
69319;SDS011;56467;53.502;49.248;2022-10-17T05:29:26;2.97;;;1.80;;
69319;SDS011;56467;53.502;49.248;2022-10-17T05:31:51;2.47;;;1.90;;
69319;SDS011;56467;53.502;49.248;2022-10-17T05:34:17;1.90;;;1.70;;
69319;SDS011;56467;53.502;49.248;2022-10-17T05:36:43;2.42;;;1.80;;
69319;SDS011;56467;53.502;49.248;2022-10-17T05:39:10;2.33;;;1.70;;
69319;SDS011;56467;53.502;49.248;2022-10-17T05:41:38;2.25;;;1.80;;
69319;SDS011;56467;53.502;49.248;2022-10-17T05:44:05;2.95;;;1.90;;
69319;SDS011;56467;53.502;49.248;2022-10-17T05:46:31;2.38;;;1.98;;
69319;SDS011;56467;53.502;49.248;2022-10-17T05:48:57;1.88;;;1.63;;
69319;SDS011;56467;53.502;49.248;2022-10-17T05:51:22;2.38;;;1.80;;
69319;SDS011;56467;53.502;49.248;2022-10-17T05:53:48;2.30;;;1.80;;
69319;SDS011;56467;53.502;49.248;2022-10-17T05:56:14;2.90;;;1.98;;
69319;SDS011;56467;53.502;49.248;2022-10-17T05:58:40;2.47;;;1.70;;
69319;SDS011;56467;53.502;49.248;2022-10-17T06:01:08;2.55;;;1.70;;
69319;SDS011;56467;53.502;49.248;2022-10-17T06:03:34;2.05;;;1.80;;
69319;SDS011;56467;53.502;49.248;2022-10-17T06:06:07;3.33;;;1.80;;
69319;SDS011;56467;53.502;49.248;2022-10-17T06:08:34;2.10;;;1.90;;
69319;SDS011;56467;53.502;49.248;2022-10-17T06:11:00;2.38;;;1.90;;
69319;SDS011;56467;53.502;49.248;2022-10-17T06:13:26;2.33;;;1.60;;
69319;SDS011;56467;53.502;49.248;2022-10-17T06:15:52;3.35;;;1.80;;
69319;SDS011;56467;53.502;49.248;2022-10-17T06:18:18;3.00;;;1.80;;
69319;SDS011;56467;53.502;49.248;2022-10-17T06:20:43;2.10;;;1.80;;
69319;SDS011;56467;53.502;49.248;2022-10-17T06:23:09;2.20;;;1.80;;
69319;SDS011;56467;53.502;49.248;2022-10-17T06:25:35;2.78;;;1.88;;
69319;SDS011;56467;53.502;49.248;2022-10-17T06:28:00;2.35;;;1.85;;
69319;SDS011;56467;53.502;49.248;2022-10-17T06:30:26;2.65;;;1.77;;
69319;SDS011;56467;53.502;49.248;2022-10-17T06:32:52;3.28;;;1.92;;
69319;SDS011;56467;53.502;49.248;2022-10-17T06:35:18;2.00;;;1.67;;
69319;SDS011;56467;53.502;49.248;2022-10-17T06:37:44;2.88;;;1.63;;
69319;SDS011;56467;53.502;49.248;2022-10-17T06:40:10;2.38;;;1.85;;
69319;SDS011;56467;53.502;49.248;2022-10-17T06:42:36;3.17;;;1.73;;
69319;SDS011;56467;53.502;49.248;2022-10-17T06:45:03;2.33;;;1.60;;
69319;SDS011;56467;53.502;49.248;2022-10-17T06:47:29;2.35;;;1.60;;
69319;SDS011;56467;53.502;49.248;2022-10-17T06:49:55;2.30;;;1.70;;
69319;SDS011;56467;53.502;49.248;2022-10-17T06:52:21;2.22;;;1.50;;
69319;SDS011;56467;53.502;49.248;2022-10-17T06:54:47;2.30;;;1.60;;
69319;SDS011;56467;53.502;49.248;2022-10-17T06:57:16;2.80;;;1.80;;
69319;SDS011;56467;53.502;49.248;2022-10-17T06:59:42;2.28;;;1.55;;
69319;SDS011;56467;53.502;49.248;2022-10-17T07:02:08;1.92;;;1.73;;
69319;SDS011;56467;53.502;49.248;2022-10-17T07:04:37;2.85;;;1.60;;
69319;SDS011;56467;53.502;49.248;2022-10-17T07:07:03;2.40;;;1.90;;
69319;SDS011;56467;53.502;49.248;2022-10-17T07:09:29;2.10;;;1.60;;
69319;SDS011;56467;53.502;49.248;2022-10-17T07:11:57;1.92;;;1.48;;
69319;SDS011;56467;53.502;49.248;2022-10-17T07:14:23;2.08;;;1.58;;
69319;SDS011;56467;53.502;49.248;2022-10-17T07:16:56;1.55;;;1.40;;
69319;SDS011;56467;53.502;49.248;2022-10-17T07:19:23;1.92;;;1.70;;
69319;SDS011;56467;53.502;49.248;2022-10-17T07:21:49;1.95;;;1.60;;
69319;SDS011;56467;53.502;49.248;2022-10-17T07:24:14;2.35;;;1.70;;
69319;SDS011;56467;53.502;49.248;2022-10-17T07:26:40;1.67;;;1.58;;
69319;SDS011;56467;53.502;49.248;2022-10-17T07:29:06;2.28;;;1.60;;
69319;SDS011;56467;53.502;49.248;2022-10-17T07:31:33;1.85;;;1.58;;
69319;SDS011;56467;53.502;49.248;2022-10-17T07:33:59;1.70;;;1.60;;
69319;SDS011;56467;53.502;49.248;2022-10-17T07:36:24;2.00;;;1.58;;
69319;SDS011;56467;53.502;49.248;2022-10-17T07:38:50;2.40;;;1.60;;
69319;SDS011;56467;53.502;49.248;2022-10-17T07:41:16;1.90;;;1.52;;
69319;SDS011;56467;53.502;49.248;2022-10-17T07:43:43;1.90;;;1.60;;
69319;SDS011;56467;53.502;49.248;2022-10-17T07:46:09;2.72;;;1.70;;
69319;SDS011;56467;53.502;49.248;2022-10-17T07:48:36;2.55;;;1.55;;
69319;SDS011;56467;53.502;49.248;2022-10-17T07:51:04;1.65;;;1.40;;
69319;SDS011;56467;53.502;49.248;2022-10-17T07:53:33;2.20;;;1.58;;
69319;SDS011;56467;53.502;49.248;2022-10-17T07:56:06;2.40;;;1.67;;
69319;SDS011;56467;53.502;49.248;2022-10-17T07:58:33;1.58;;;1.42;;
69319;SDS011;56467;53.502;49.248;2022-10-17T08:01:04;2.08;;;1.40;;
69319;SDS011;56467;53.502;49.248;2022-10-17T08:03:32;2.53;;;1.70;;
69319;SDS011;56467;53.502;49.248;2022-10-17T08:05:59;1.75;;;1.40;;
69319;SDS011;56467;53.502;49.248;2022-10-17T08:08:25;2.00;;;1.60;;
69319;SDS011;56467;53.502;49.248;2022-10-17T08:10:52;2.45;;;1.65;;
69319;SDS011;56467;53.502;49.248;2022-10-17T08:13:19;1.90;;;1.40;;
69319;SDS011;56467;53.502;49.248;2022-10-17T08:15:46;1.50;;;1.40;;
69319;SDS011;56467;53.502;49.248;2022-10-17T08:18:12;1.65;;;1.40;;
69319;SDS011;56467;53.502;49.248;2022-10-17T08:20:39;1.60;;;1.40;;
69319;SDS011;56467;53.502;49.248;2022-10-17T08:23:05;3.90;;;1.70;;
69319;SDS011;56467;53.502;49.248;2022-10-17T08:25:31;2.35;;;1.60;;
69319;SDS011;56467;53.502;49.248;2022-10-17T08:27:57;1.80;;;1.50;;
69319;SDS011;56467;53.502;49.248;2022-10-17T08:30:23;1.63;;;1.52;;
69319;SDS011;56467;53.502;49.248;2022-10-17T08:32:49;1.70;;;1.50;;
69319;SDS011;56467;53.502;49.248;2022-10-17T08:35:15;1.50;;;1.40;;
69319;SDS011;56467;53.502;49.248;2022-10-17T08:37:40;2.08;;;1.50;;
69319;SDS011;56467;53.502;49.248;2022-10-17T08:40:08;2.45;;;1.70;;
69319;SDS011;56467;53.502;49.248;2022-10-17T08:47:59;2.03;;;1.70;;
69319;SDS011;56467;53.502;49.248;2022-10-17T08:56:04;2.38;;;1.58;;
69319;SDS011;56467;53.502;49.248;2022-10-17T08:58:37;2.42;;;1.70;;
69319;SDS011;56467;53.502;49.248;2022-10-17T09:06:26;2.88;;;1.70;;
69319;SDS011;56467;53.502;49.248;2022-10-17T09:17:41;2.72;;;1.80;;
69319;SDS011;56467;53.502;49.248;2022-10-17T09:20:24;2.33;;;1.60;;
69319;SDS011;56467;53.502;49.248;2022-10-17T09:23:20;1.88;;;1.67;;
69319;SDS011;56467;53.502;49.248;2022-10-17T09:26:07;2.70;;;1.75;;
69319;SDS011;56467;53.502;49.248;2022-10-17T09:28:44;2.00;;;1.50;;
69319;SDS011;56467;53.502;49.248;2022-10-17T09:31:20;2.13;;;1.58;;
69319;SDS011;56467;53.502;49.248;2022-10-17T09:33:49;2.53;;;1.63;;
69319;SDS011;56467;53.502;49.248;2022-10-17T09:36:18;2.20;;;1.70;;
69319;SDS011;56467;53.502;49.248;2022-10-17T09:38:51;2.13;;;1.80;;
69319;SDS011;56467;53.502;49.248;2022-10-17T09:41:22;2.00;;;1.65;;
69319;SDS011;56467;53.502;49.248;2022-10-17T09:43:53;3.72;;;1.80;;
69319;SDS011;56467;53.502;49.248;2022-10-17T09:46:37;1.77;;;1.67;;
69319;SDS011;56467;53.502;49.248;2022-10-17T09:51:36;2.10;;;1.50;;
69319;SDS011;56467;53.502;49.248;2022-10-17T09:54:09;3.17;;;1.73;;
69319;SDS011;56467;53.502;49.248;2022-10-17T09:57:05;3.60;;;1.58;;
69319;SDS011;56467;53.502;49.248;2022-10-17T09:59:40;2.05;;;1.80;;
69319;SDS011;56467;53.502;49.248;2022-10-17T10:05:14;3.30;;;1.67;;
69319;SDS011;56467;53.502;49.248;2022-10-17T10:07:32;2.45;;;1.77;;
69319;SDS011;56467;53.502;49.248;2022-10-17T10:10:00;2.70;;;1.80;;
69319;SDS011;56467;53.502;49.248;2022-10-17T10:12:30;2.00;;;1.75;;
69319;SDS011;56467;53.502;49.248;2022-10-17T10:17:56;2.03;;;1.60;;
69319;SDS011;56467;53.502;49.248;2022-10-17T10:25:53;2.30;;;1.83;;
69319;SDS011;56467;53.502;49.248;2022-10-17T10:28:25;2.42;;;1.60;;
69319;SDS011;56467;53.502;49.248;2022-10-17T10:30:55;2.85;;;1.70;;
69319;SDS011;56467;53.502;49.248;2022-10-17T10:33:24;2.90;;;1.90;;
69319;SDS011;56467;53.502;49.248;2022-10-17T10:35:59;3.75;;;1.60;;
69319;SDS011;56467;53.502;49.248;2022-10-17T10:38:28;2.65;;;1.67;;
69319;SDS011;56467;53.502;49.248;2022-10-17T10:41:05;1.60;;;1.50;;
69319;SDS011;56467;53.502;49.248;2022-10-17T10:43:42;1.95;;;1.60;;
69319;SDS011;56467;53.502;49.248;2022-10-17T10:46:22;3.28;;;1.60;;
69319;SDS011;56467;53.502;49.248;2022-10-17T10:48:56;2.95;;;1.50;;
69319;SDS011;56467;53.502;49.248;2022-10-17T10:51:26;2.40;;;1.67;;
69319;SDS011;56467;53.502;49.248;2022-10-17T10:54:36;1.65;;;1.48;;
69319;SDS011;56467;53.502;49.248;2022-10-17T10:56:46;2.47;;;1.70;;
69319;SDS011;56467;53.502;49.248;2022-10-17T11:02:12;1.70;;;1.60;;
69319;SDS011;56467;53.502;49.248;2022-10-17T11:07:22;1.85;;;1.48;;
69319;SDS011;56467;53.502;49.248;2022-10-17T11:12:50;2.60;;;1.55;;
69319;SDS011;56467;53.502;49.248;2022-10-17T11:15:24;1.90;;;1.40;;
69319;SDS011;56467;53.502;49.248;2022-10-17T11:18:02;3.33;;;1.70;;
69319;SDS011;56467;53.502;49.248;2022-10-17T11:20:46;2.28;;;1.63;;
69319;SDS011;56467;53.502;49.248;2022-10-17T11:26:22;2.30;;;1.50;;
69319;SDS011;56467;53.502;49.248;2022-10-17T11:28:55;2.25;;;1.40;;
69319;SDS011;56467;53.502;49.248;2022-10-17T11:31:25;2.00;;;1.30;;
69319;SDS011;56467;53.502;49.248;2022-10-17T11:36:38;3.30;;;1.55;;
69319;SDS011;56467;53.502;49.248;2022-10-17T11:39:21;3.97;;;1.77;;
69319;SDS011;56467;53.502;49.248;2022-10-17T11:42:05;1.65;;;1.55;;
69319;SDS011;56467;53.502;49.248;2022-10-17T11:44:36;2.58;;;1.67;;
69319;SDS011;56467;53.502;49.248;2022-10-17T11:47:27;2.08;;;1.60;;
69319;SDS011;56467;53.502;49.248;2022-10-17T11:50:19;2.75;;;1.60;;
69319;SDS011;56467;53.502;49.248;2022-10-17T11:55:27;3.10;;;1.52;;
69319;SDS011;56467;53.502;49.248;2022-10-17T12:11:55;1.80;;;1.70;;
69319;SDS011;56467;53.502;49.248;2022-10-17T12:16:57;2.05;;;1.60;;
69319;SDS011;56467;53.502;49.248;2022-10-17T12:19:25;2.00;;;1.50;;
69319;SDS011;56467;53.502;49.248;2022-10-17T12:21:58;1.60;;;1.50;;
69319;SDS011;56467;53.502;49.248;2022-10-17T12:24:41;2.22;;;1.80;;
69319;SDS011;56467;53.502;49.248;2022-10-17T12:27:22;1.88;;;1.70;;
69319;SDS011;56467;53.502;49.248;2022-10-17T12:30:00;2.20;;;1.63;;
69319;SDS011;56467;53.502;49.248;2022-10-17T12:32:29;2.00;;;1.67;;
69319;SDS011;56467;53.502;49.248;2022-10-17T12:34:55;2.38;;;1.67;;
69319;SDS011;56467;53.502;49.248;2022-10-17T12:51:13;4.90;;;3.10;;
69319;SDS011;56467;53.502;49.248;2022-10-17T12:56:29;3.83;;;2.70;;
69319;SDS011;56467;53.502;49.248;2022-10-17T12:59:16;4.03;;;2.47;;
69319;SDS011;56467;53.502;49.248;2022-10-17T13:01:46;3.28;;;2.30;;
69319;SDS011;56467;53.502;49.248;2022-10-17T13:04:16;4.45;;;2.45;;
69319;SDS011;56467;53.502;49.248;2022-10-17T13:06:44;3.28;;;2.35;;
69319;SDS011;56467;53.502;49.248;2022-10-17T13:09:27;3.40;;;2.30;;
69319;SDS011;56467;53.502;49.248;2022-10-17T13:11:56;5.05;;;2.50;;
69319;SDS011;56467;53.502;49.248;2022-10-17T13:14:25;3.08;;;2.25;;
69319;SDS011;56467;53.502;49.248;2022-10-17T13:17:00;3.53;;;2.40;;
69319;SDS011;56467;53.502;49.248;2022-10-17T13:19:30;3.97;;;2.20;;
69319;SDS011;56467;53.502;49.248;2022-10-17T13:22:09;3.05;;;2.20;;
69319;SDS011;56467;53.502;49.248;2022-10-17T13:24:46;3.90;;;2.03;;
69319;SDS011;56467;53.502;49.248;2022-10-17T13:27:32;4.15;;;2.10;;
69319;SDS011;56467;53.502;49.248;2022-10-17T13:30:00;2.58;;;1.95;;
69319;SDS011;56467;53.502;49.248;2022-10-17T13:32:42;2.72;;;2.08;;
69319;SDS011;56467;53.502;49.248;2022-10-17T13:35:13;2.78;;;2.10;;
69319;SDS011;56467;53.502;49.248;2022-10-17T13:37:42;3.30;;;2.22;;
69319;SDS011;56467;53.502;49.248;2022-10-17T13:42:46;2.47;;;1.98;;
69319;SDS011;56467;53.502;49.248;2022-10-17T13:45:19;3.17;;;2.13;;
69319;SDS011;56467;53.502;49.248;2022-10-17T13:47:51;4.60;;;2.00;;
69319;SDS011;56467;53.502;49.248;2022-10-17T13:56:18;2.72;;;1.90;;
69319;SDS011;56467;53.502;49.248;2022-10-17T13:58:53;3.03;;;2.00;;
69319;SDS011;56467;53.502;49.248;2022-10-17T14:01:26;3.53;;;2.05;;
69319;SDS011;56467;53.502;49.248;2022-10-17T14:03:53;3.38;;;2.00;;
69319;SDS011;56467;53.502;49.248;2022-10-17T14:06:22;3.60;;;2.08;;
69319;SDS011;56467;53.502;49.248;2022-10-17T14:09:00;2.90;;;2.00;;
69319;SDS011;56467;53.502;49.248;2022-10-17T14:11:39;6.82;;;2.60;;
69319;SDS011;56467;53.502;49.248;2022-10-17T14:14:22;3.25;;;2.53;;
69319;SDS011;56467;53.502;49.248;2022-10-17T14:16:50;4.80;;;2.60;;
69319;SDS011;56467;53.502;49.248;2022-10-17T14:19:30;3.10;;;2.40;;
69319;SDS011;56467;53.502;49.248;2022-10-17T14:22:14;4.28;;;2.72;;
69319;SDS011;56467;53.502;49.248;2022-10-17T14:24:44;4.07;;;2.60;;
69319;SDS011;56467;53.502;49.248;2022-10-17T14:27:29;3.15;;;2.40;;
69319;SDS011;56467;53.502;49.248;2022-10-17T14:30:05;3.50;;;2.75;;
69319;SDS011;56467;53.502;49.248;2022-10-17T14:32:56;3.97;;;2.60;;
69319;SDS011;56467;53.502;49.248;2022-10-17T14:35:23;4.35;;;2.30;;
69319;SDS011;56467;53.502;49.248;2022-10-17T14:37:50;2.97;;;2.50;;
69319;SDS011;56467;53.502;49.248;2022-10-17T14:40:19;2.83;;;2.08;;
69319;SDS011;56467;53.502;49.248;2022-10-17T14:42:52;3.78;;;2.30;;
69319;SDS011;56467;53.502;49.248;2022-10-17T14:47:52;3.78;;;2.13;;
69319;SDS011;56467;53.502;49.248;2022-10-17T14:50:25;2.88;;;2.15;;
69319;SDS011;56467;53.502;49.248;2022-10-17T14:53:04;3.25;;;2.25;;
69319;SDS011;56467;53.502;49.248;2022-10-17T14:55:31;4.03;;;2.17;;
69319;SDS011;56467;53.502;49.248;2022-10-17T14:57:58;3.15;;;2.20;;
69319;SDS011;56467;53.502;49.248;2022-10-17T15:00:24;2.75;;;2.20;;
69319;SDS011;56467;53.502;49.248;2022-10-17T15:02:51;3.53;;;2.10;;
69319;SDS011;56467;53.502;49.248;2022-10-17T15:05:19;2.97;;;2.05;;
69319;SDS011;56467;53.502;49.248;2022-10-17T15:07:47;4.60;;;2.30;;
69319;SDS011;56467;53.502;49.248;2022-10-17T15:13:01;4.10;;;2.03;;
69319;SDS011;56467;53.502;49.248;2022-10-17T15:15:28;3.88;;;2.05;;
69319;SDS011;56467;53.502;49.248;2022-10-17T15:17:55;3.85;;;2.22;;
69319;SDS011;56467;53.502;49.248;2022-10-17T15:20:22;3.55;;;2.15;;
69319;SDS011;56467;53.502;49.248;2022-10-17T15:22:51;2.72;;;2.20;;
69319;SDS011;56467;53.502;49.248;2022-10-17T15:25:17;4.22;;;2.05;;
69319;SDS011;56467;53.502;49.248;2022-10-17T15:27:43;2.50;;;2.17;;
69319;SDS011;56467;53.502;49.248;2022-10-17T15:30:19;5.32;;;2.75;;
69319;SDS011;56467;53.502;49.248;2022-10-17T15:32:47;3.42;;;2.15;;
69319;SDS011;56467;53.502;49.248;2022-10-17T15:35:13;4.53;;;2.30;;
69319;SDS011;56467;53.502;49.248;2022-10-17T15:37:39;3.33;;;2.20;;
69319;SDS011;56467;53.502;49.248;2022-10-17T15:40:12;3.28;;;2.10;;
69319;SDS011;56467;53.502;49.248;2022-10-17T15:42:46;3.13;;;2.00;;
69319;SDS011;56467;53.502;49.248;2022-10-17T15:45:12;2.28;;;1.83;;
69319;SDS011;56467;53.502;49.248;2022-10-17T15:47:40;3.08;;;2.20;;
69319;SDS011;56467;53.502;49.248;2022-10-17T15:50:10;3.63;;;2.28;;
69319;SDS011;56467;53.502;49.248;2022-10-17T15:52:38;3.05;;;2.03;;
69319;SDS011;56467;53.502;49.248;2022-10-17T15:55:05;5.93;;;2.40;;
69319;SDS011;56467;53.502;49.248;2022-10-17T15:57:33;4.57;;;2.28;;
69319;SDS011;56467;53.502;49.248;2022-10-17T16:00:04;4.68;;;2.80;;
69319;SDS011;56467;53.502;49.248;2022-10-17T16:02:32;4.05;;;2.63;;
69319;SDS011;56467;53.502;49.248;2022-10-17T16:04:58;4.28;;;2.40;;
69319;SDS011;56467;53.502;49.248;2022-10-17T16:07:24;4.85;;;2.60;;
69319;SDS011;56467;53.502;49.248;2022-10-17T16:09:50;3.95;;;2.40;;
69319;SDS011;56467;53.502;49.248;2022-10-17T16:12:17;5.50;;;2.45;;
69319;SDS011;56467;53.502;49.248;2022-10-17T16:14:45;4.95;;;3.40;;
69319;SDS011;56467;53.502;49.248;2022-10-17T16:17:12;4.95;;;3.08;;
69319;SDS011;56467;53.502;49.248;2022-10-17T16:19:39;5.32;;;2.97;;
69319;SDS011;56467;53.502;49.248;2022-10-17T16:22:08;6.13;;;3.13;;
69319;SDS011;56467;53.502;49.248;2022-10-17T16:24:47;4.68;;;3.00;;
69319;SDS011;56467;53.502;49.248;2022-10-17T16:27:13;4.70;;;2.85;;
69319;SDS011;56467;53.502;49.248;2022-10-17T16:29:38;5.05;;;2.75;;
69319;SDS011;56467;53.502;49.248;2022-10-17T16:32:04;5.90;;;2.72;;
69319;SDS011;56467;53.502;49.248;2022-10-17T16:34:30;4.53;;;3.30;;
69319;SDS011;56467;53.502;49.248;2022-10-17T16:36:56;7.55;;;3.40;;
69319;SDS011;56467;53.502;49.248;2022-10-17T16:39:22;4.65;;;3.30;;
69319;SDS011;56467;53.502;49.248;2022-10-17T16:41:47;4.57;;;2.83;;
69319;SDS011;56467;53.502;49.248;2022-10-17T16:44:13;4.97;;;2.95;;
69319;SDS011;56467;53.502;49.248;2022-10-17T16:46:40;5.35;;;2.78;;
69319;SDS011;56467;53.502;49.248;2022-10-17T16:49:06;4.32;;;2.70;;
69319;SDS011;56467;53.502;49.248;2022-10-17T16:51:32;5.30;;;2.72;;
69319;SDS011;56467;53.502;49.248;2022-10-17T16:54:00;7.10;;;2.85;;
69319;SDS011;56467;53.502;49.248;2022-10-17T16:56:26;4.00;;;2.22;;
69319;SDS011;56467;53.502;49.248;2022-10-17T16:58:56;3.78;;;2.40;;
69319;SDS011;56467;53.502;49.248;2022-10-17T17:01:23;4.07;;;2.70;;
69319;SDS011;56467;53.502;49.248;2022-10-17T17:03:50;4.80;;;2.65;;
69319;SDS011;56467;53.502;49.248;2022-10-17T17:06:18;4.40;;;2.42;;
69319;SDS011;56467;53.502;49.248;2022-10-17T17:08:53;4.28;;;2.40;;
69319;SDS011;56467;53.502;49.248;2022-10-17T17:11:20;4.45;;;2.67;;
69319;SDS011;56467;53.502;49.248;2022-10-17T17:13:47;5.22;;;2.38;;
69319;SDS011;56467;53.502;49.248;2022-10-17T17:16:15;4.80;;;2.40;;
69319;SDS011;56467;53.502;49.248;2022-10-17T17:18:45;2.70;;;2.13;;